sensor_id;sensor_type;location;lat;lon;timestamp;P1;durP1;ratioP1;P2;durP2;ratioP2
12459;SDS011;6295;49.452;8.466;2023-05-10T03:14:42;3.00;;;1.90;;
12459;SDS011;6295;49.452;8.466;2023-05-10T03:18:47;2.33;;;1.90;;
12459;SDS011;6295;49.452;8.466;2023-05-10T03:23:04;2.23;;;2.03;;
12459;SDS011;6295;49.452;8.466;2023-05-10T03:27:14;1.93;;;1.83;;
12459;SDS011;6295;49.452;8.466;2023-05-10T03:31:20;2.60;;;1.80;;
12459;SDS011;6295;49.452;8.466;2023-05-10T03:35:25;1.90;;;1.70;;
12459;SDS011;6295;49.452;8.466;2023-05-10T03:39:27;2.50;;;1.67;;
12459;SDS011;6295;49.452;8.466;2023-05-10T03:43:29;1.97;;;1.87;;
12459;SDS011;6295;49.452;8.466;2023-05-10T03:47:33;2.30;;;2.10;;
12459;SDS011;6295;49.452;8.466;2023-05-10T03:51:35;3.17;;;2.20;;
12459;SDS011;6295;49.452;8.466;2023-05-10T03:55:37;2.27;;;2.07;;
12459;SDS011;6295;49.452;8.466;2023-05-10T03:59:40;2.23;;;2.03;;
12459;SDS011;6295;49.452;8.466;2023-05-10T04:03:45;2.40;;;2.20;;
12459;SDS011;6295;49.452;8.466;2023-05-10T04:07:47;2.10;;;1.90;;
12459;SDS011;6295;49.452;8.466;2023-05-10T04:11:51;1.97;;;1.87;;
12459;SDS011;6295;49.452;8.466;2023-05-10T04:15:53;2.43;;;1.90;;
12459;SDS011;6295;49.452;8.466;2023-05-10T04:19:56;2.23;;;2.03;;
12459;SDS011;6295;49.452;8.466;2023-05-10T04:23:58;2.20;;;2.00;;
12459;SDS011;6295;49.452;8.466;2023-05-10T04:28:01;2.60;;;1.80;;
12459;SDS011;6295;49.452;8.466;2023-05-10T04:32:03;2.60;;;2.10;;
12459;SDS011;6295;49.452;8.466;2023-05-10T04:36:07;2.20;;;2.00;;
12459;SDS011;6295;49.452;8.466;2023-05-10T04:40:10;2.63;;;2.40;;
12459;SDS011;6295;49.452;8.466;2023-05-10T04:44:12;2.23;;;1.80;;
12459;SDS011;6295;49.452;8.466;2023-05-10T04:48:14;2.00;;;1.90;;
12459;SDS011;6295;49.452;8.466;2023-05-10T04:52:18;3.60;;;1.90;;
12459;SDS011;6295;49.452;8.466;2023-05-10T04:56:20;2.33;;;1.80;;
12459;SDS011;6295;49.452;8.466;2023-05-10T05:00:23;1.80;;;1.70;;
12459;SDS011;6295;49.452;8.466;2023-05-10T05:04:25;2.10;;;1.90;;
12459;SDS011;6295;49.452;8.466;2023-05-10T05:08:29;2.17;;;1.97;;
12459;SDS011;6295;49.452;8.466;2023-05-10T05:12:31;2.50;;;1.87;;
12459;SDS011;6295;49.452;8.466;2023-05-10T05:16:33;2.80;;;2.00;;
12459;SDS011;6295;49.452;8.466;2023-05-10T05:20:35;1.80;;;1.70;;
12459;SDS011;6295;49.452;8.466;2023-05-10T05:24:39;1.77;;;1.67;;
12459;SDS011;6295;49.452;8.466;2023-05-10T05:28:41;2.10;;;2.00;;
12459;SDS011;6295;49.452;8.466;2023-05-10T05:32:43;2.70;;;1.97;;
12459;SDS011;6295;49.452;8.466;2023-05-10T05:36:48;2.40;;;2.20;;
12459;SDS011;6295;49.452;8.466;2023-05-10T05:40:57;2.30;;;2.10;;
12459;SDS011;6295;49.452;8.466;2023-05-10T05:45:01;2.20;;;2.10;;
12459;SDS011;6295;49.452;8.466;2023-05-10T05:49:03;2.53;;;2.33;;
12459;SDS011;6295;49.452;8.466;2023-05-10T05:53:06;2.60;;;2.40;;
12459;SDS011;6295;49.452;8.466;2023-05-10T05:57:09;2.70;;;2.50;;
12459;SDS011;6295;49.452;8.466;2023-05-10T06:01:11;2.90;;;2.70;;
12459;SDS011;6295;49.452;8.466;2023-05-10T06:05:13;2.97;;;2.77;;
12459;SDS011;6295;49.452;8.466;2023-05-10T06:09:15;2.87;;;2.63;;
12459;SDS011;6295;49.452;8.466;2023-05-10T06:13:19;3.10;;;2.90;;
12459;SDS011;6295;49.452;8.466;2023-05-10T06:17:21;2.80;;;2.60;;
12459;SDS011;6295;49.452;8.466;2023-05-10T06:21:24;3.20;;;2.90;;
12459;SDS011;6295;49.452;8.466;2023-05-10T06:25:29;2.83;;;2.63;;
12459;SDS011;6295;49.452;8.466;2023-05-10T06:29:32;3.40;;;3.10;;
12459;SDS011;6295;49.452;8.466;2023-05-10T06:33:34;3.57;;;3.20;;
12459;SDS011;6295;49.452;8.466;2023-05-10T06:37:36;3.40;;;3.10;;
12459;SDS011;6295;49.452;8.466;2023-05-10T06:41:38;3.33;;;3.03;;
12459;SDS011;6295;49.452;8.466;2023-05-10T06:45:42;3.53;;;3.20;;
12459;SDS011;6295;49.452;8.466;2023-05-10T06:49:44;3.50;;;3.20;;
12459;SDS011;6295;49.452;8.466;2023-05-10T06:53:47;3.70;;;3.40;;
12459;SDS011;6295;49.452;8.466;2023-05-10T06:57:49;3.70;;;3.40;;
12459;SDS011;6295;49.452;8.466;2023-05-10T07:01:56;3.63;;;3.33;;
12459;SDS011;6295;49.452;8.466;2023-05-10T07:06:01;3.70;;;3.40;;
12459;SDS011;6295;49.452;8.466;2023-05-10T07:10:04;3.90;;;3.60;;
12459;SDS011;6295;49.452;8.466;2023-05-10T07:14:07;4.03;;;3.63;;
12459;SDS011;6295;49.452;8.466;2023-05-10T07:18:11;4.40;;;3.53;;
12459;SDS011;6295;49.452;8.466;2023-05-10T07:22:17;3.70;;;3.40;;
12459;SDS011;6295;49.452;8.466;2023-05-10T07:26:19;3.50;;;3.20;;
12459;SDS011;6295;49.452;8.466;2023-05-10T07:30:22;3.60;;;3.30;;
12459;SDS011;6295;49.452;8.466;2023-05-10T07:34:25;3.53;;;3.23;;
12459;SDS011;6295;49.452;8.466;2023-05-10T07:38:28;3.53;;;3.23;;
12459;SDS011;6295;49.452;8.466;2023-05-10T07:42:30;3.20;;;3.00;;
12459;SDS011;6295;49.452;8.466;2023-05-10T07:46:32;4.13;;;2.90;;
12459;SDS011;6295;49.452;8.466;2023-05-10T07:50:36;3.30;;;3.10;;
12459;SDS011;6295;49.452;8.466;2023-05-10T07:54:38;3.20;;;2.90;;
12459;SDS011;6295;49.452;8.466;2023-05-10T07:58:40;4.00;;;3.30;;
12459;SDS011;6295;49.452;8.466;2023-05-10T08:02:44;2.87;;;2.67;;
12459;SDS011;6295;49.452;8.466;2023-05-10T08:06:55;3.07;;;2.60;;
12459;SDS011;6295;49.452;8.466;2023-05-10T08:10:57;2.47;;;2.30;;
12459;SDS011;6295;49.452;8.466;2023-05-10T08:14:59;2.77;;;2.30;;
12459;SDS011;6295;49.452;8.466;2023-05-10T08:19:01;3.33;;;2.50;;
12459;SDS011;6295;49.452;8.466;2023-05-10T08:23:04;2.40;;;2.20;;
12459;SDS011;6295;49.452;8.466;2023-05-10T08:27:07;3.90;;;2.10;;
12459;SDS011;6295;49.452;8.466;2023-05-10T08:31:09;1.83;;;1.73;;
12459;SDS011;6295;49.452;8.466;2023-05-10T08:35:11;1.90;;;1.80;;
12459;SDS011;6295;49.452;8.466;2023-05-10T08:39:15;2.43;;;1.80;;
12459;SDS011;6295;49.452;8.466;2023-05-10T08:43:20;1.70;;;1.60;;
12459;SDS011;6295;49.452;8.466;2023-05-10T08:47:27;1.60;;;1.50;;
12459;SDS011;6295;49.452;8.466;2023-05-10T08:51:29;1.73;;;1.63;;
12459;SDS011;6295;49.452;8.466;2023-05-10T08:55:38;1.80;;;1.70;;
12459;SDS011;6295;49.452;8.466;2023-05-10T08:59:42;1.60;;;1.50;;
12459;SDS011;6295;49.452;8.466;2023-05-10T09:03:45;3.20;;;1.70;;
12459;SDS011;6295;49.452;8.466;2023-05-10T09:07:48;2.47;;;1.90;;
12459;SDS011;6295;49.452;8.466;2023-05-10T09:11:51;1.90;;;1.80;;
12459;SDS011;6295;49.452;8.466;2023-05-10T09:15:55;2.27;;;1.60;;
12459;SDS011;6295;49.452;8.466;2023-05-10T09:20:02;2.00;;;1.90;;
12459;SDS011;6295;49.452;8.466;2023-05-10T09:24:06;2.00;;;1.90;;
12459;SDS011;6295;49.452;8.466;2023-05-10T09:28:10;2.00;;;1.90;;
12459;SDS011;6295;49.452;8.466;2023-05-10T09:32:13;2.10;;;2.00;;
12459;SDS011;6295;49.452;8.466;2023-05-10T09:36:16;2.43;;;1.90;;
12459;SDS011;6295;49.452;8.466;2023-05-10T09:40:19;2.00;;;1.77;;
12459;SDS011;6295;49.452;8.466;2023-05-10T09:44:24;2.77;;;1.60;;
12459;SDS011;6295;49.452;8.466;2023-05-10T09:48:27;1.90;;;1.40;;
12459;SDS011;6295;49.452;8.466;2023-05-10T09:52:29;2.43;;;1.40;;
12459;SDS011;6295;49.452;8.466;2023-05-10T09:56:32;1.53;;;1.30;;
12459;SDS011;6295;49.452;8.466;2023-05-10T10:00:37;2.50;;;1.40;;
12459;SDS011;6295;49.452;8.466;2023-05-10T10:04:41;3.63;;;1.30;;
12459;SDS011;6295;49.452;8.466;2023-05-10T10:08:43;2.67;;;1.47;;
12459;SDS011;6295;49.452;8.466;2023-05-10T10:12:45;3.47;;;1.20;;
12459;SDS011;6295;49.452;8.466;2023-05-10T10:16:49;1.57;;;1.10;;
12459;SDS011;6295;49.452;8.466;2023-05-10T10:20:51;2.57;;;1.27;;
12459;SDS011;6295;49.452;8.466;2023-05-10T10:24:54;1.43;;;1.00;;
12459;SDS011;6295;49.452;8.466;2023-05-10T10:29:00;1.70;;;1.37;;
12459;SDS011;6295;49.452;8.466;2023-05-10T10:37:43;2.83;;;2.07;;
12459;SDS011;6295;49.452;8.466;2023-05-10T10:41:49;2.37;;;1.77;;
12459;SDS011;6295;49.452;8.466;2023-05-10T10:50:15;4.30;;;1.80;;
12459;SDS011;6295;49.452;8.466;2023-05-10T10:54:21;1.40;;;1.30;;
12459;SDS011;6295;49.452;8.466;2023-05-10T10:58:31;2.40;;;1.33;;
12459;SDS011;6295;49.452;8.466;2023-05-10T11:02:43;2.63;;;1.30;;
12459;SDS011;6295;49.452;8.466;2023-05-10T11:06:49;2.30;;;1.30;;
12459;SDS011;6295;49.452;8.466;2023-05-10T11:10:52;1.90;;;1.40;;
12459;SDS011;6295;49.452;8.466;2023-05-10T11:14:56;3.03;;;1.30;;
12459;SDS011;6295;49.452;8.466;2023-05-10T11:19:00;1.87;;;1.00;;
12459;SDS011;6295;49.452;8.466;2023-05-10T11:23:12;1.33;;;1.20;;
12459;SDS011;6295;49.452;8.466;2023-05-10T11:27:16;1.07;;;0.93;;
12459;SDS011;6295;49.452;8.466;2023-05-10T11:31:18;1.80;;;1.03;;
12459;SDS011;6295;49.452;8.466;2023-05-10T11:35:21;2.03;;;1.10;;
12459;SDS011;6295;49.452;8.466;2023-05-10T11:39:26;2.10;;;1.13;;
12459;SDS011;6295;49.452;8.466;2023-05-10T11:43:29;1.93;;;1.00;;
12459;SDS011;6295;49.452;8.466;2023-05-10T11:47:32;3.33;;;1.20;;
12459;SDS011;6295;49.452;8.466;2023-05-10T11:51:35;3.00;;;1.20;;
12459;SDS011;6295;49.452;8.466;2023-05-10T11:55:40;2.47;;;1.10;;
12459;SDS011;6295;49.452;8.466;2023-05-10T11:59:42;7.60;;;1.40;;
12459;SDS011;6295;49.452;8.466;2023-05-10T12:03:45;2.40;;;1.30;;
12459;SDS011;6295;49.452;8.466;2023-05-10T12:07:48;2.83;;;1.30;;
12459;SDS011;6295;49.452;8.466;2023-05-10T12:11:54;1.43;;;1.20;;
12459;SDS011;6295;49.452;8.466;2023-05-10T12:15:57;2.67;;;1.40;;
12459;SDS011;6295;49.452;8.466;2023-05-10T12:20:12;1.50;;;1.20;;
12459;SDS011;6295;49.452;8.466;2023-05-10T12:24:15;2.03;;;1.20;;
12459;SDS011;6295;49.452;8.466;2023-05-10T12:28:19;1.40;;;1.30;;
12459;SDS011;6295;49.452;8.466;2023-05-10T12:32:21;3.13;;;1.47;;
12459;SDS011;6295;49.452;8.466;2023-05-10T12:36:39;2.00;;;1.40;;
12459;SDS011;6295;49.452;8.466;2023-05-10T12:40:43;3.27;;;1.50;;
12459;SDS011;6295;49.452;8.466;2023-05-10T12:44:51;3.33;;;1.40;;
12459;SDS011;6295;49.452;8.466;2023-05-10T12:48:56;1.40;;;1.30;;
12459;SDS011;6295;49.452;8.466;2023-05-10T12:52:58;2.30;;;1.47;;
12459;SDS011;6295;49.452;8.466;2023-05-10T12:57:00;2.37;;;1.50;;
12459;SDS011;6295;49.452;8.466;2023-05-10T13:01:04;2.23;;;1.40;;
12459;SDS011;6295;49.452;8.466;2023-05-10T13:05:06;3.10;;;1.50;;
12459;SDS011;6295;49.452;8.466;2023-05-10T13:09:09;2.77;;;1.40;;
12459;SDS011;6295;49.452;8.466;2023-05-10T13:13:11;3.53;;;1.50;;
12459;SDS011;6295;49.452;8.466;2023-05-10T13:17:15;1.70;;;1.37;;
12459;SDS011;6295;49.452;8.466;2023-05-10T13:21:17;4.77;;;1.50;;
12459;SDS011;6295;49.452;8.466;2023-05-10T13:25:19;1.70;;;1.20;;
12459;SDS011;6295;49.452;8.466;2023-05-10T13:29:22;1.53;;;1.10;;
12459;SDS011;6295;49.452;8.466;2023-05-10T13:33:27;2.23;;;1.10;;
12459;SDS011;6295;49.452;8.466;2023-05-10T13:37:29;2.80;;;1.30;;
12459;SDS011;6295;49.452;8.466;2023-05-10T13:41:31;1.10;;;1.00;;
12459;SDS011;6295;49.452;8.466;2023-05-10T13:45:33;1.77;;;1.03;;
12459;SDS011;6295;49.452;8.466;2023-05-10T13:49:37;2.73;;;1.10;;
12459;SDS011;6295;49.452;8.466;2023-05-10T13:53:39;2.30;;;1.07;;
12459;SDS011;6295;49.452;8.466;2023-05-10T13:57:41;3.27;;;1.10;;
12459;SDS011;6295;49.452;8.466;2023-05-10T14:01:44;2.33;;;1.07;;
12459;SDS011;6295;49.452;8.466;2023-05-10T14:05:47;2.07;;;1.10;;
12459;SDS011;6295;49.452;8.466;2023-05-10T14:09:49;1.60;;;1.00;;
12459;SDS011;6295;49.452;8.466;2023-05-10T14:13:52;1.47;;;1.00;;
12459;SDS011;6295;49.452;8.466;2023-05-10T14:17:54;2.63;;;0.90;;
12459;SDS011;6295;49.452;8.466;2023-05-10T14:21:57;2.00;;;0.90;;
12459;SDS011;6295;49.452;8.466;2023-05-10T14:25:59;0.87;;;0.87;;
12459;SDS011;6295;49.452;8.466;2023-05-10T14:30:03;3.53;;;0.93;;
12459;SDS011;6295;49.452;8.466;2023-05-10T14:34:05;1.13;;;1.03;;
12459;SDS011;6295;49.452;8.466;2023-05-10T14:38:09;2.57;;;1.00;;
12459;SDS011;6295;49.452;8.466;2023-05-10T14:42:12;1.40;;;0.90;;
12459;SDS011;6295;49.452;8.466;2023-05-10T14:46:14;0.80;;;0.80;;
12459;SDS011;6295;49.452;8.466;2023-05-10T14:50:17;1.40;;;0.90;;
12459;SDS011;6295;49.452;8.466;2023-05-10T14:54:20;1.70;;;0.90;;
12459;SDS011;6295;49.452;8.466;2023-05-10T14:58:23;2.93;;;0.90;;
12459;SDS011;6295;49.452;8.466;2023-05-10T15:02:25;2.20;;;0.90;;
12459;SDS011;6295;49.452;8.466;2023-05-10T15:06:30;1.03;;;0.90;;
12459;SDS011;6295;49.452;8.466;2023-05-10T15:10:36;0.90;;;0.90;;
12459;SDS011;6295;49.452;8.466;2023-05-10T15:14:38;1.53;;;1.00;;
12459;SDS011;6295;49.452;8.466;2023-05-10T15:18:40;1.70;;;0.93;;
12459;SDS011;6295;49.452;8.466;2023-05-10T15:22:42;1.57;;;0.90;;
12459;SDS011;6295;49.452;8.466;2023-05-10T15:26:46;3.43;;;1.00;;
12459;SDS011;6295;49.452;8.466;2023-05-10T15:30:48;1.73;;;0.90;;
12459;SDS011;6295;49.452;8.466;2023-05-10T15:34:51;0.90;;;0.80;;
12459;SDS011;6295;49.452;8.466;2023-05-10T15:38:53;2.50;;;1.07;;
12459;SDS011;6295;49.452;8.466;2023-05-10T15:42:57;1.20;;;0.80;;
12459;SDS011;6295;49.452;8.466;2023-05-10T15:46:59;1.57;;;0.90;;
12459;SDS011;6295;49.452;8.466;2023-05-10T15:51:01;3.03;;;0.77;;
12459;SDS011;6295;49.452;8.466;2023-05-10T15:55:04;2.37;;;0.83;;
12459;SDS011;6295;49.452;8.466;2023-05-10T15:59:13;1.17;;;1.00;;
12459;SDS011;6295;49.452;8.466;2023-05-10T16:03:15;1.93;;;1.00;;
12459;SDS011;6295;49.452;8.466;2023-05-10T16:07:17;2.60;;;0.90;;
12459;SDS011;6295;49.452;8.466;2023-05-10T16:11:19;1.07;;;0.80;;
12459;SDS011;6295;49.452;8.466;2023-05-10T16:15:23;2.30;;;0.97;;
12459;SDS011;6295;49.452;8.466;2023-05-10T16:19:25;1.10;;;0.90;;
12459;SDS011;6295;49.452;8.466;2023-05-10T16:23:28;2.20;;;1.10;;
12459;SDS011;6295;49.452;8.466;2023-05-10T16:27:30;1.77;;;1.17;;
12459;SDS011;6295;49.452;8.466;2023-05-10T16:31:34;1.27;;;1.10;;
12459;SDS011;6295;49.452;8.466;2023-05-10T16:35:36;1.67;;;1.10;;
12459;SDS011;6295;49.452;8.466;2023-05-10T16:39:38;2.17;;;1.00;;
12459;SDS011;6295;49.452;8.466;2023-05-10T16:43:40;1.10;;;0.90;;
12459;SDS011;6295;49.452;8.466;2023-05-10T16:47:44;1.10;;;1.00;;
12459;SDS011;6295;49.452;8.466;2023-05-10T16:51:46;0.83;;;0.83;;
12459;SDS011;6295;49.452;8.466;2023-05-10T16:55:48;2.33;;;0.90;;
12459;SDS011;6295;49.452;8.466;2023-05-10T16:59:50;1.20;;;1.03;;
12459;SDS011;6295;49.452;8.466;2023-05-10T17:03:56;1.87;;;0.90;;
12459;SDS011;6295;49.452;8.466;2023-05-10T17:07:58;1.13;;;0.90;;
12459;SDS011;6295;49.452;8.466;2023-05-10T17:12:00;1.97;;;1.00;;
12459;SDS011;6295;49.452;8.466;2023-05-10T17:16:03;1.90;;;1.10;;
12459;SDS011;6295;49.452;8.466;2023-05-10T17:20:09;1.67;;;1.00;;
12459;SDS011;6295;49.452;8.466;2023-05-10T17:24:11;1.20;;;1.10;;
12459;SDS011;6295;49.452;8.466;2023-05-10T17:28:13;0.93;;;0.90;;
12459;SDS011;6295;49.452;8.466;2023-05-10T17:32:15;1.33;;;1.00;;
12459;SDS011;6295;49.452;8.466;2023-05-10T17:36:19;1.50;;;0.90;;
12459;SDS011;6295;49.452;8.466;2023-05-10T17:40:21;2.50;;;1.30;;
12459;SDS011;6295;49.452;8.466;2023-05-10T17:44:23;1.27;;;1.00;;
12459;SDS011;6295;49.452;8.466;2023-05-10T17:48:26;1.10;;;0.97;;
12459;SDS011;6295;49.452;8.466;2023-05-10T17:52:29;2.33;;;1.20;;
12459;SDS011;6295;49.452;8.466;2023-05-10T17:56:31;1.70;;;1.00;;
12459;SDS011;6295;49.452;8.466;2023-05-10T18:00:34;1.10;;;1.00;;
12459;SDS011;6295;49.452;8.466;2023-05-10T18:04:38;1.17;;;1.03;;
12459;SDS011;6295;49.452;8.466;2023-05-10T18:08:41;1.27;;;1.17;;
12459;SDS011;6295;49.452;8.466;2023-05-10T18:12:43;1.20;;;1.10;;
12459;SDS011;6295;49.452;8.466;2023-05-10T18:16:46;1.10;;;1.00;;
12459;SDS011;6295;49.452;8.466;2023-05-10T18:20:48;1.27;;;1.10;;
12459;SDS011;6295;49.452;8.466;2023-05-10T18:24:56;1.20;;;1.10;;
12459;SDS011;6295;49.452;8.466;2023-05-10T18:28:59;1.10;;;1.00;;
12459;SDS011;6295;49.452;8.466;2023-05-10T18:33:01;1.10;;;1.00;;
12459;SDS011;6295;49.452;8.466;2023-05-10T18:37:03;1.53;;;1.17;;
12459;SDS011;6295;49.452;8.466;2023-05-10T18:41:07;1.53;;;0.93;;
12459;SDS011;6295;49.452;8.466;2023-05-10T18:45:11;1.17;;;1.07;;
12459;SDS011;6295;49.452;8.466;2023-05-10T18:49:14;1.00;;;1.00;;
12459;SDS011;6295;49.452;8.466;2023-05-10T18:53:16;1.10;;;1.00;;
